createdAt,value
2022-10-01T00:01:10.674Z,3.22
2022-10-01T00:03:37.533Z,3.38
2022-10-01T00:06:10.762Z,3.22
2022-10-01T00:08:40.115Z,3.40
2022-10-01T00:11:14.337Z,3.53
2022-10-01T00:13:43.252Z,3.30
2022-10-01T00:16:12.662Z,3.20
2022-10-01T00:18:41.078Z,3.63
2022-10-01T00:21:10.156Z,3.45
2022-10-01T00:23:37.121Z,3.33
2022-10-01T00:26:21.848Z,3.33
2022-10-01T00:28:54.167Z,3.45
2022-10-01T00:31:21.330Z,3.35
2022-10-01T00:33:48.665Z,3.00
2022-10-01T00:36:15.411Z,3.63
2022-10-01T00:38:42.383Z,3.22
2022-10-01T00:41:10.020Z,3.20
2022-10-01T00:43:43.293Z,3.63
2022-10-01T00:46:15.577Z,3.50
2022-10-01T00:48:51.955Z,3.85
2022-10-01T00:51:18.833Z,4.25
2022-10-01T00:53:46.591Z,4.05
2022-10-01T00:56:13.642Z,3.67
2022-10-01T00:58:40.797Z,4.28
2022-10-01T01:01:08.050Z,4.28
2022-10-01T01:03:34.975Z,4.15
2022-10-01T01:06:01.733Z,4.85
2022-10-01T01:08:29.440Z,4.88
2022-10-01T01:11:08.096Z,5.38
2022-10-01T01:13:43.542Z,5.43
2022-10-01T01:16:20.992Z,5.25
2022-10-01T01:19:04.862Z,5.32
2022-10-01T01:21:45.538Z,6.03
2022-10-01T01:24:33.130Z,5.88
2022-10-01T01:27:09.029Z,6.10
2022-10-01T01:32:14.789Z,6.18
2022-10-01T01:34:45.550Z,6.90
2022-10-01T01:37:17.955Z,6.07
2022-10-01T01:39:50.305Z,6.80
2022-10-01T01:42:29.292Z,6.05
2022-10-01T01:44:59.978Z,6.55
2022-10-01T01:47:30.751Z,7.05
2022-10-01T01:49:58.617Z,6.80
2022-10-01T01:52:25.577Z,7.13
2022-10-01T01:54:52.657Z,6.15
2022-10-01T01:57:20.322Z,6.97
2022-10-01T01:59:47.320Z,6.97
2022-10-01T02:02:17.850Z,7.20
2022-10-01T02:04:55.767Z,7.15
2022-10-01T02:08:20.701Z,6.68
2022-10-01T02:11:21.799Z,6.28
2022-10-01T02:13:55.138Z,7.43
2022-10-01T02:16:27.697Z,7.40
2022-10-01T02:19:13.756Z,7.20
2022-10-01T02:21:55.852Z,8.15
2022-10-01T02:24:22.680Z,7.78
2022-10-01T02:26:53.423Z,7.65
2022-10-01T02:29:22.606Z,7.20
2022-10-01T02:31:55.728Z,8.60
2022-10-01T02:34:27.179Z,8.27
2022-10-01T02:36:56.121Z,8.27
2022-10-01T02:39:27.225Z,7.72
2022-10-01T02:41:55.576Z,7.70
2022-10-01T02:44:30.360Z,8.02
2022-10-01T02:47:26.559Z,8.02
2022-10-01T02:49:54.507Z,8.32
2022-10-01T02:52:44.521Z,7.57
2022-10-01T02:55:16.719Z,7.95
2022-10-01T02:57:43.695Z,7.40
2022-10-01T03:00:14.731Z,8.40
2022-10-01T03:02:41.537Z,7.75
2022-10-01T03:05:08.972Z,7.97
2022-10-01T03:07:36.321Z,8.23
2022-10-01T03:10:04.879Z,7.80
2022-10-01T03:12:31.590Z,7.97
2022-10-01T03:14:58.250Z,8.15
2022-10-01T03:17:25.264Z,8.10
2022-10-01T03:19:52.034Z,7.97
2022-10-01T03:22:22.777Z,8.40
2022-10-01T03:24:53.304Z,9.10
2022-10-01T03:27:21.516Z,8.70
2022-10-01T03:29:48.888Z,8.13
2022-10-01T03:32:16.001Z,9.07
2022-10-01T03:34:42.751Z,8.20
2022-10-01T03:37:09.564Z,8.55
2022-10-01T03:39:36.488Z,8.13
2022-10-01T03:42:05.964Z,8.50
2022-10-01T03:44:33.792Z,8.25
2022-10-01T03:47:00.664Z,8.10
2022-10-01T03:49:28.010Z,6.90
2022-10-01T03:51:55.528Z,7.53
2022-10-01T03:54:22.703Z,8.02
2022-10-01T03:56:49.598Z,6.93
2022-10-01T03:59:16.378Z,6.63
2022-10-01T04:01:43.205Z,6.40
2022-10-01T04:04:12.503Z,6.18
2022-10-01T04:06:39.195Z,6.68
2022-10-01T04:09:06.018Z,6.00
2022-10-01T04:11:32.990Z,6.63
2022-10-01T04:14:00.001Z,6.28
2022-10-01T04:16:26.958Z,6.22
2022-10-01T04:18:54.103Z,6.32
2022-10-01T04:21:21.098Z,7.15
2022-10-01T04:23:48.425Z,6.05
2022-10-01T04:26:15.395Z,6.43
2022-10-01T04:28:45.209Z,6.63
2022-10-01T04:31:24.597Z,6.55
2022-10-01T04:33:53.798Z,6.50
2022-10-01T04:36:20.832Z,6.28
2022-10-01T04:38:47.638Z,7.00
2022-10-01T04:41:14.941Z,6.78
2022-10-01T04:43:41.707Z,5.85
2022-10-01T04:46:08.631Z,6.13
2022-10-01T04:48:35.351Z,6.38
2022-10-01T04:51:01.974Z,5.40
2022-10-01T04:53:29.265Z,5.68
2022-10-01T04:55:56.355Z,5.55
2022-10-01T04:58:23.017Z,6.07
2022-10-01T05:00:50.380Z,5.20
2022-10-01T05:03:17.666Z,4.97
2022-10-01T05:05:44.591Z,4.85
2022-10-01T05:08:11.387Z,4.68
2022-10-01T05:10:38.074Z,5.35
2022-10-01T05:13:04.830Z,5.20
2022-10-01T05:15:31.709Z,5.20
2022-10-01T05:17:58.533Z,4.97
2022-10-01T05:20:27.096Z,4.60
2022-10-01T05:22:56.482Z,4.75
2022-10-01T05:25:23.744Z,3.75
2022-10-01T05:27:50.647Z,4.72
2022-10-01T05:30:22.278Z,3.80
2022-10-01T05:33:00.984Z,3.72
2022-10-01T05:35:28.565Z,4.05
2022-10-01T05:37:59.973Z,4.47
2022-10-01T05:40:28.797Z,4.30
2022-10-01T05:42:56.735Z,4.68
2022-10-01T05:45:23.758Z,4.38
2022-10-01T05:48:03.114Z,4.65
2022-10-01T05:50:32.093Z,4.30
2022-10-01T05:52:59.917Z,4.90
2022-10-01T05:55:32.031Z,4.13
2022-10-01T05:58:10.682Z,5.05
2022-10-01T06:00:39.478Z,4.65
2022-10-01T06:03:07.276Z,4.63
2022-10-01T06:05:36.064Z,4.65
2022-10-01T06:08:06.502Z,4.75
2022-10-01T06:10:33.365Z,5.43
2022-10-01T06:13:01.923Z,5.30
2022-10-01T06:15:29.511Z,5.05
2022-10-01T06:17:56.142Z,4.70
2022-10-01T06:20:24.203Z,5.50
2022-10-01T06:22:56.218Z,5.22
2022-10-01T06:25:23.450Z,5.97
2022-10-01T06:27:59.749Z,5.43
2022-10-01T06:30:28.531Z,6.07
2022-10-01T06:33:05.527Z,5.00
2022-10-01T06:35:33.898Z,5.82
2022-10-01T06:38:03.886Z,5.85
2022-10-01T06:40:32.058Z,5.88
2022-10-01T06:42:59.057Z,6.03
2022-10-01T06:45:27.228Z,5.97
2022-10-01T06:48:03.940Z,6.10
2022-10-01T06:50:35.053Z,6.50
2022-10-01T06:53:02.848Z,7.63
2022-10-01T06:55:32.594Z,6.53
2022-10-01T06:58:01.511Z,7.45
2022-10-01T07:00:29.815Z,6.72
2022-10-01T07:02:56.942Z,7.00
2022-10-01T07:05:24.726Z,7.47
2022-10-01T07:07:54.745Z,6.85
2022-10-01T07:10:23.422Z,6.05
2022-10-01T07:12:53.826Z,6.25
2022-10-01T07:15:25.815Z,6.38
2022-10-01T07:17:52.815Z,6.18
2022-10-01T07:20:21.197Z,5.38
2022-10-01T07:22:48.993Z,5.88
2022-10-01T07:25:16.059Z,5.07
2022-10-01T07:27:42.832Z,5.15
2022-10-01T07:30:10.099Z,4.63
2022-10-01T07:32:36.893Z,4.28
2022-10-01T07:35:05.092Z,4.10
2022-10-01T07:37:31.997Z,4.57
2022-10-01T07:39:58.789Z,3.83
2022-10-01T07:42:26.613Z,3.80
2022-10-01T07:44:53.877Z,3.13
2022-10-01T07:47:20.743Z,3.30
2022-10-01T07:49:47.436Z,2.80
2022-10-01T07:52:14.292Z,3.40
2022-10-01T07:54:41.063Z,3.08
2022-10-01T07:57:08.149Z,2.88
2022-10-01T07:59:35.203Z,3.10
2022-10-01T08:02:02.185Z,3.10
2022-10-01T08:04:47.774Z,2.90
2022-10-01T08:07:15.575Z,2.92
2022-10-01T08:09:42.226Z,4.25
2022-10-01T08:12:08.945Z,3.55
2022-10-01T08:14:35.816Z,3.45
2022-10-01T08:17:02.716Z,3.47
2022-10-01T08:19:30.194Z,3.35
2022-10-01T08:21:56.841Z,3.08
2022-10-01T08:24:23.567Z,3.05
2022-10-01T08:26:57.626Z,3.20
2022-10-01T08:29:24.471Z,3.60
2022-10-01T08:31:51.337Z,3.47
2022-10-01T08:34:18.607Z,3.28
2022-10-01T08:36:45.908Z,3.28
2022-10-01T08:39:13.878Z,3.30
2022-10-01T08:41:49.853Z,3.28
2022-10-01T08:44:23.838Z,3.00
2022-10-01T08:46:51.923Z,2.85
2022-10-01T08:49:33.230Z,2.78
2022-10-01T08:52:14.636Z,2.78
2022-10-01T08:54:48.230Z,3.20
2022-10-01T08:57:21.070Z,3.00
2022-10-01T09:00:00.286Z,3.10
2022-10-01T09:02:32.704Z,3.17
2022-10-01T09:05:02.933Z,2.90
2022-10-01T09:07:57.259Z,2.92
2022-10-01T09:10:52.007Z,3.15
2022-10-01T09:13:50.574Z,3.10
2022-10-01T09:16:47.981Z,2.90
2022-10-01T09:19:36.637Z,2.85
2022-10-01T09:22:27.915Z,2.72
2022-10-01T09:25:22.342Z,2.83
2022-10-01T09:27:49.842Z,2.83
2022-10-01T09:30:23.568Z,2.90
2022-10-01T09:33:20.449Z,2.95
2022-10-01T09:35:47.308Z,2.83
2022-10-01T09:38:24.824Z,3.63
2022-10-01T09:40:56.823Z,2.60
2022-10-01T09:43:34.658Z,2.80
2022-10-01T09:46:03.807Z,2.78
2022-10-01T09:49:13.969Z,3.05
2022-10-01T09:51:48.617Z,2.75
2022-10-01T09:54:36.662Z,3.13
2022-10-01T09:57:08.230Z,2.55
2022-10-01T09:59:44.147Z,3.30
2022-10-01T10:02:22.713Z,2.78
2022-10-01T10:05:02.542Z,2.80
2022-10-01T10:07:32.592Z,3.80
2022-10-01T10:10:09.795Z,3.15
2022-10-01T10:12:37.891Z,3.33
2022-10-01T10:15:10.106Z,3.65
2022-10-01T10:17:40.986Z,3.55
2022-10-01T10:20:19.630Z,3.33
2022-10-01T10:22:46.320Z,2.97
2022-10-01T10:25:20.384Z,3.03
2022-10-01T10:27:55.999Z,2.90
2022-10-01T10:32:52.786Z,2.70
2022-10-01T10:35:25.836Z,3.28
2022-10-01T10:37:54.985Z,3.15
2022-10-01T10:40:29.304Z,3.13
2022-10-01T10:42:58.636Z,2.77
2022-10-01T10:45:38.837Z,2.72
2022-10-01T10:48:12.034Z,3.10
2022-10-01T10:50:41.143Z,3.28
2022-10-01T10:53:22.883Z,3.17
2022-10-01T10:55:59.520Z,2.90
2022-10-01T10:58:29.347Z,3.70
2022-10-01T11:00:59.128Z,3.50
2022-10-01T11:03:32.325Z,2.92
2022-10-01T11:06:09.572Z,2.78
2022-10-01T11:08:39.625Z,2.60
2022-10-01T11:11:12.487Z,2.00
2022-10-01T11:14:00.375Z,1.77
2022-10-01T11:16:45.169Z,1.67
2022-10-01T11:19:30.472Z,1.70
2022-10-01T11:22:03.090Z,1.95
2022-10-01T11:25:01.228Z,2.08
2022-10-01T11:28:39.604Z,2.20
2022-10-01T11:31:51.525Z,1.50
2022-10-01T11:34:42.080Z,1.75
2022-10-01T11:37:12.921Z,1.88
2022-10-01T11:39:43.568Z,1.80
2022-10-01T11:42:22.233Z,1.95
2022-10-01T11:45:04.694Z,1.90
2022-10-01T11:47:40.661Z,1.65
2022-10-01T11:50:21.571Z,1.80
2022-10-01T11:53:02.545Z,1.98
2022-10-01T11:56:14.571Z,2.30
2022-10-01T11:59:02.331Z,2.38
2022-10-01T12:02:23.560Z,1.80
2022-10-01T12:05:24.535Z,1.58
2022-10-01T12:12:16.490Z,1.50
2022-10-01T12:15:04.130Z,1.55
2022-10-01T12:17:49.270Z,1.67
2022-10-01T12:20:24.275Z,2.08
2022-10-01T12:22:53.343Z,1.92
2022-10-01T12:25:29.143Z,1.63
2022-10-01T12:28:10.787Z,2.42
2022-10-01T12:30:54.795Z,1.85
2022-10-01T12:33:53.794Z,1.60
2022-10-01T12:36:37.782Z,1.20
2022-10-01T12:39:29.540Z,1.20
2022-10-01T12:42:31.412Z,1.20
2022-10-01T12:45:10.680Z,1.00
2022-10-01T12:47:55.479Z,1.13
2022-10-01T12:51:03.035Z,0.90
2022-10-01T12:53:37.802Z,1.23
2022-10-01T13:00:02.761Z,0.95
2022-10-01T13:02:51.230Z,1.00
2022-10-01T13:05:29.681Z,1.50
2022-10-01T13:08:09.377Z,1.60
2022-10-01T13:10:42.851Z,1.45
2022-10-01T13:13:33.551Z,1.60
2022-10-01T13:16:28.676Z,1.60
2022-10-01T13:19:17.435Z,1.70
2022-10-01T13:21:50.371Z,2.22
2022-10-01T13:24:22.296Z,1.80
2022-10-01T13:27:12.311Z,2.40
2022-10-01T13:30:01.801Z,1.85
2022-10-01T13:33:05.224Z,2.28
2022-10-01T13:35:41.554Z,2.15
2022-10-01T13:38:47.766Z,2.00
2022-10-01T13:41:30.101Z,2.60
2022-10-01T13:54:50.413Z,2.00
2022-10-01T13:57:36.384Z,2.03
2022-10-01T14:00:03.157Z,1.70
2022-10-01T14:02:36.514Z,2.40
2022-10-01T14:05:17.580Z,1.65
2022-10-01T14:07:48.359Z,1.80
2022-10-01T14:10:16.766Z,1.88
2022-10-01T14:13:05.419Z,1.70
2022-10-01T14:16:00.463Z,1.63
2022-10-01T14:18:33.273Z,1.27
2022-10-01T14:21:37.346Z,1.25
2022-10-01T14:24:06.712Z,1.63
2022-10-01T14:26:39.183Z,1.38
2022-10-01T14:29:35.068Z,1.67
2022-10-01T14:32:21.029Z,1.42
2022-10-01T14:35:28.420Z,1.75
2022-10-01T14:38:04.383Z,2.08
2022-10-01T14:40:40.278Z,2.47
2022-10-01T14:43:26.237Z,2.28
2022-10-01T14:48:23.271Z,2.20
2022-10-01T14:50:53.636Z,2.08
2022-10-01T14:53:23.982Z,1.63
2022-10-01T14:55:54.309Z,2.20
2022-10-01T14:58:26.639Z,1.70
2022-10-01T15:00:55.399Z,1.40
2022-10-01T15:03:22.537Z,1.80
2022-10-01T15:05:50.353Z,1.52
2022-10-01T15:08:35.747Z,1.67
2022-10-01T15:11:06.875Z,1.20
2022-10-01T15:13:40.421Z,1.83
2022-10-01T15:16:17.897Z,1.52
2022-10-01T15:18:57.437Z,1.50
2022-10-01T15:21:30.354Z,2.78
2022-10-01T15:23:59.900Z,1.17
2022-10-01T15:26:27.784Z,1.10
2022-10-01T15:29:03.222Z,1.35
2022-10-01T15:33:57.220Z,1.52
2022-10-01T15:36:24.087Z,1.40
2022-10-01T15:38:51.633Z,1.55
2022-10-01T15:41:31.715Z,1.08
2022-10-01T15:44:04.667Z,1.35
2022-10-01T15:46:35.410Z,1.58
2022-10-01T15:49:14.808Z,1.73
2022-10-01T15:52:12.267Z,1.33
2022-10-01T15:54:41.419Z,1.50
2022-10-01T15:57:09.032Z,1.35
2022-10-01T15:59:37.115Z,1.38
2022-10-01T16:02:09.302Z,1.40
2022-10-01T16:04:36.057Z,1.83
2022-10-01T16:07:02.771Z,1.55
2022-10-01T16:09:30.426Z,1.50
2022-10-01T16:12:18.596Z,1.40
2022-10-01T16:15:03.131Z,1.80
2022-10-01T16:17:35.322Z,2.30
2022-10-01T16:20:17.076Z,1.65
2022-10-01T16:22:43.968Z,1.70
2022-10-01T16:25:19.713Z,1.60
2022-10-01T16:27:58.796Z,1.80
2022-10-01T16:30:27.612Z,1.95
2022-10-01T16:32:54.994Z,1.33
2022-10-01T16:35:23.279Z,1.60
2022-10-01T16:37:52.074Z,2.33
2022-10-01T16:40:20.300Z,1.98
2022-10-01T16:42:49.465Z,1.58
2022-10-01T16:45:28.148Z,1.95
2022-10-01T16:47:58.463Z,2.10
2022-10-01T16:50:26.095Z,2.10
2022-10-01T16:52:53.777Z,2.20
2022-10-01T16:55:27.203Z,1.80
2022-10-01T16:57:54.882Z,2.42
2022-10-01T17:00:24.024Z,1.40
2022-10-01T17:02:50.877Z,1.75
2022-10-01T17:05:20.253Z,1.88
2022-10-01T17:07:47.110Z,2.33
2022-10-01T17:10:14.695Z,1.45
2022-10-01T17:12:42.168Z,3.40
2022-10-01T17:15:15.743Z,3.58
2022-10-01T17:17:42.364Z,2.10
2022-10-01T17:20:09.993Z,1.90
2022-10-01T17:22:37.537Z,2.38
2022-10-01T17:25:04.622Z,2.58
2022-10-01T17:27:31.229Z,3.42
2022-10-01T17:29:57.910Z,2.83
2022-10-01T17:32:24.572Z,2.88
2022-10-01T17:34:53.823Z,4.57
2022-10-01T17:37:23.949Z,4.75
2022-10-01T17:39:50.969Z,3.92
2022-10-01T17:42:18.177Z,4.60
2022-10-01T17:44:45.536Z,4.70
2022-10-01T17:47:12.650Z,3.70
2022-10-01T17:49:39.600Z,3.92
2022-10-01T17:52:06.368Z,3.13
2022-10-01T17:54:33.328Z,3.45
2022-10-01T17:57:00.104Z,3.78
2022-10-01T17:59:26.940Z,2.50
2022-10-01T18:01:54.506Z,2.33
2022-10-01T18:04:21.317Z,1.98
2022-10-01T18:06:49.002Z,2.08
2022-10-01T18:09:17.213Z,2.42
2022-10-01T18:11:43.928Z,3.90
2022-10-01T18:14:10.739Z,4.60
2022-10-01T18:16:39.843Z,4.05
2022-10-01T18:21:53.531Z,2.80
2022-10-01T18:24:20.247Z,3.97
2022-10-01T18:26:47.356Z,4.15
2022-10-01T18:29:19.419Z,3.80
2022-10-01T18:31:46.767Z,3.80
2022-10-01T18:34:25.317Z,3.47
2022-10-01T18:36:51.901Z,3.65
2022-10-01T18:39:21.109Z,3.58
2022-10-01T18:41:49.460Z,3.58
2022-10-01T18:44:20.468Z,3.45
2022-10-01T18:46:50.662Z,3.30
2022-10-01T18:49:39.244Z,3.92
2022-10-01T18:52:18.013Z,4.03
2022-10-01T18:54:53.798Z,3.28
2022-10-01T19:00:09.006Z,2.67
2022-10-01T19:03:02.331Z,3.17
2022-10-01T19:05:48.952Z,3.20
2022-10-01T19:08:46.978Z,2.83
2022-10-01T19:11:31.508Z,2.83
2022-10-01T19:14:16.774Z,3.38
2022-10-01T19:17:25.220Z,3.70
2022-10-01T19:20:03.460Z,2.63
2022-10-01T19:23:06.486Z,2.88
2022-10-01T19:26:17.617Z,3.08
2022-10-01T19:29:27.173Z,3.10
2022-10-01T19:32:09.697Z,2.67
2022-10-01T19:34:51.062Z,2.88
2022-10-01T19:37:30.993Z,3.10
2022-10-01T19:40:05.533Z,2.72
2022-10-01T19:42:38.599Z,3.20
2022-10-01T19:45:14.692Z,3.00
2022-10-01T19:47:47.945Z,3.80
2022-10-01T19:50:21.317Z,3.88
2022-10-01T19:52:51.683Z,3.20
2022-10-01T19:55:25.503Z,3.58
2022-10-01T19:57:53.059Z,3.58
2022-10-01T20:00:22.139Z,3.40
2022-10-01T20:02:54.687Z,2.80
2022-10-01T20:05:30.058Z,3.35
2022-10-01T20:08:15.354Z,3.58
2022-10-01T20:10:54.874Z,3.00
2022-10-01T20:13:45.342Z,3.70
2022-10-01T20:16:36.358Z,3.97
2022-10-01T20:19:42.661Z,3.30
2022-10-01T20:22:23.104Z,3.50
2022-10-01T20:25:00.699Z,2.45
2022-10-01T20:28:10.865Z,2.08
2022-10-01T20:30:54.768Z,1.92
2022-10-01T20:33:32.786Z,2.28
2022-10-01T20:36:06.229Z,1.95
2022-10-01T20:38:47.944Z,2.08
2022-10-01T20:41:19.724Z,1.50
2022-10-01T20:43:49.357Z,1.58
2022-10-01T20:46:32.746Z,1.60
2022-10-01T20:49:24.845Z,1.63
2022-10-01T20:52:02.680Z,1.40
2022-10-01T20:54:51.969Z,1.25
2022-10-01T20:57:52.793Z,1.50
2022-10-01T21:00:21.663Z,1.55
2022-10-01T21:02:58.887Z,1.70
2022-10-01T21:05:48.891Z,1.80
2022-10-01T21:08:37.932Z,1.67
2022-10-01T21:11:17.176Z,1.80
2022-10-01T21:13:53.905Z,1.52
2022-10-01T21:16:37.325Z,1.60
2022-10-01T21:19:38.795Z,1.30
2022-10-01T21:22:08.272Z,1.65
2022-10-01T21:24:50.341Z,1.52
2022-10-01T21:27:38.085Z,1.30
2022-10-01T21:30:23.283Z,1.75
2022-10-01T21:33:06.233Z,1.90
2022-10-01T21:35:52.767Z,1.48
2022-10-01T21:38:28.912Z,1.98
2022-10-01T21:41:23.785Z,2.63
2022-10-01T21:44:22.011Z,2.20
2022-10-01T21:47:07.231Z,2.22
2022-10-01T21:49:42.989Z,2.03
2022-10-01T21:52:37.695Z,1.88
2022-10-01T21:55:23.029Z,1.88
2022-10-01T21:57:55.591Z,2.03
2022-10-01T22:00:26.881Z,2.00
2022-10-01T22:03:37.994Z,2.17
2022-10-01T22:06:24.539Z,2.42
2022-10-01T22:09:18.917Z,2.53
2022-10-01T22:11:53.631Z,2.22
2022-10-01T22:14:21.959Z,2.35
2022-10-01T22:16:57.486Z,2.60
2022-10-01T22:19:37.424Z,2.40
2022-10-01T22:22:14.985Z,2.65
2022-10-01T22:24:48.119Z,2.70
2022-10-01T22:27:33.757Z,2.80
2022-10-01T22:30:06.453Z,2.53
2022-10-01T22:33:06.124Z,2.78
2022-10-01T22:35:39.245Z,2.72
2022-10-01T22:38:13.819Z,2.40
2022-10-01T22:40:52.965Z,2.70
2022-10-01T22:43:19.723Z,2.97
2022-10-01T22:46:10.450Z,3.35
2022-10-01T22:48:45.345Z,3.25
2022-10-01T22:51:50.271Z,3.17
2022-10-01T22:54:21.617Z,2.58
2022-10-01T22:56:58.973Z,3.10
2022-10-01T22:59:32.327Z,2.70
2022-10-01T23:02:12.199Z,2.90
2022-10-01T23:05:00.880Z,2.55
2022-10-01T23:07:27.484Z,3.35
2022-10-01T23:10:13.345Z,2.72
2022-10-01T23:13:01.613Z,2.70
2022-10-01T23:15:42.915Z,2.72
2022-10-01T23:18:35.470Z,2.60
2022-10-01T23:21:34.546Z,2.65
2022-10-01T23:24:22.920Z,3.47
2022-10-01T23:26:57.527Z,3.50
2022-10-01T23:29:53.561Z,3.05
2022-10-01T23:32:38.286Z,3.72
2022-10-01T23:35:09.375Z,4.07
2022-10-01T23:37:55.117Z,3.08
2022-10-01T23:40:25.938Z,3.20
2022-10-01T23:43:10.779Z,3.17
2022-10-01T23:45:54.989Z,3.20
2022-10-01T23:48:31.379Z,3.35
2022-10-01T23:51:06.437Z,3.63
2022-10-01T23:53:47.871Z,3.38
2022-10-01T23:56:38.858Z,2.83
2022-10-01T23:59:33.624Z,2.95
